• Join FlightAware (Why Join?)
  • Login
  • US Flag 
Rudolph Flight #1: Scheduled 
10:11PM EST


 

Airport Tracker/Info


-or-


 

Live Flight TrackerFlight Track Log ✈ N70AG ✈ 9 de Aug de 2013 ✈ KSCK - KVNY

Flight Track Log - Related Links

Times and Time Zones

All times are in EDT time to prevent confusion due to time zone crossing. See the N70AG flight status page for this flight to view local times or setup timezone preferences in your user account.

Time Position Orientation Groundspeed Altitude Reporting Facility
EDT Latitude Longitude Course Direction KTS MPH feet Rate Location/Type
01:05PM 37.9000 -121.2500 148° Southeast 172 198 1,300  Level Northern Cal TRACON
01:06PM 37.9167 -121.3333 284° West 262 302 4,700 2,820 Climbing Northern Cal TRACON
01:07PM 37.8500 -121.3167 169° South 283 326 7,000 1,140 Climbing Northern Cal TRACON
01:08PM 37.8000 -121.2333 127° Southeast 278 320 7,000 960 Level Northern Cal TRACON
01:09PM 37.7500 -121.1667 133° Southeast 277 319 9,000 2,280 Climbing Northern Cal TRACON
01:10PM 37.6667 -121.1500 171° South 319 367 11,600 3,240 Climbing Northern Cal TRACON
01:11PM 37.8083 -121.1706 148° Southeast  Level Estimated
01:11PM 37.5667 -121.1000 158° South 362 417 15,500  Level Northern Cal TRACON
01:14PM 37.3622 -120.9775 155° Southeast 381 438 19,900 2,340 Climbing Los Angeles Center
01:15PM 37.2406 -120.9061 155° Southeast 399 459 23,500 3,000 Climbing Los Angeles Center
01:16PM 37.1403 -120.8286 148° Southeast 414 476 26,200 2,580 Climbing Los Angeles Center
01:17PM 37.0417 -120.7369 143° Southeast 432 497 28,900 2,220 Climbing Los Angeles Center
01:18PM 36.9272 -120.6244 142° Southeast 440 506 31,000 1,080 Climbing Oakland Center
01:19PM 36.8253 -120.5331 144° Southeast 450 518 31,300 1,440 Climbing Oakland Center
01:20PM 36.7033 -120.4681 157° South 459 528 34,000 1,800 Climbing Oakland Center
01:21PM 36.5850 -120.4150 160° South 454 522 35,000 480 Climbing Oakland Center
01:22PM 36.4603 -120.3547 159° South 475 547 35,000  Level Oakland Center
01:23PM 36.3339 -120.2967 160° South 483 556 35,000  Level Oakland Center
01:24PM 36.2078 -120.2383 160° South 483 556 35,000  Level Oakland Center
01:25PM 36.0811 -120.1806 160° South 484 557 35,000  Level Oakland Center
01:26PM 35.9542 -120.1206 159° South 486 559 35,000  Level Oakland Center
01:27PM 35.8264 -120.0622 160° South 487 560 35,000 -300 Level Oakland Center
01:28PM 35.6731 -119.9914 159° South 487 560 34,400 -1,260 Descending Oakland Center
01:29PM 35.5614 -119.9064 148° Southeast 468 539 32,400 -2,100 Descending Los Angeles Center
01:30PM 35.4547 -119.8144 145° Southeast 465 535 30,100 -2,160 Descending Los Angeles Center
01:31PM 35.3489 -119.7211 144° Southeast 465 535 28,000 -2,040 Descending Los Angeles Center
01:32PM 35.2400 -119.6286 145° Southeast 472 543 26,000 -2,040 Descending Los Angeles Center
01:33PM 35.1344 -119.5375 145° Southeast 465 535 23,900 -2,100 Descending Los Angeles Center
01:34PM 35.0286 -119.4464 145° Southeast 464 534 21,700 -2,280 Descending Los Angeles Center
01:36PM 34.9053 -119.3422 145° Southeast 453 521 19,200 -2,160 Descending Los Angeles Center
01:37PM 34.8067 -119.2586 145° Southeast 436 502 17,300 -1,920 Descending Los Angeles Center
01:38PM 34.7122 -119.1778 145° Southeast 419 482 15,300 -1,860 Descending Los Angeles Center
01:39PM 34.6189 -119.1000 146° Southeast 391 450 13,500 -1,680 Descending Los Angeles Center
01:40PM 34.5428 -119.0361 145° Southeast 330 380 11,900 -1,260 Descending Los Angeles Center
01:41PM 34.4744 -118.9806 146° Southeast 295 339 11,000 -1,020 Descending Los Angeles Center
01:42PM 34.4511 -118.8903 107° East 302 348 9,900 -1,620 Descending Los Angeles Center
01:43PM 34.4442 -118.7742 94° East 289 333 7,700 -1,920 Descending Los Angeles Center
01:44PM 34.4383 -118.6792 94° East 282 325 6,000 -1,320 Descending Los Angeles Center
01:45PM 34.4336 -118.5861 93° East 279 321 5,000 -540 Descending Los Angeles Center
01:46PM 34.4097 -118.5075 110° East 258 297 5,000 -360 Level Los Angeles Center
01:47PM 34.3550 -118.5042 177° South 206 237 4,300 -960 Descending Los Angeles Center
01:48PM 34.3044 -118.5011 177° South 191 220 3,100 -1,260 Descending Los Angeles Center
01:49PM 34.2508 -118.4944 174° South 170 196 1,700 -900 Descending Los Angeles Center
01:50PM 34.2164 -118.4914 176° South 160 184 1,300 -420 Descending Los Angeles Center
01:52PM 34.2098 -118.4900 180° South  Level Estimated
01:59PM 34.2098 -118.4900 180° South  Level Estimated